sensor_id;sensor_type;location;lat;lon;timestamp;temperature;humidity
8539;DHT22;4307;53.868;11.680;2022-10-16T00:01:46;15.80;99.90
8539;DHT22;4307;53.868;11.680;2022-10-16T00:04:13;15.80;99.90
8539;DHT22;4307;53.868;11.680;2022-10-16T00:06:40;15.70;99.90
8539;DHT22;4307;53.868;11.680;2022-10-16T00:09:07;15.70;99.90
8539;DHT22;4307;53.868;11.680;2022-10-16T00:11:38;15.70;99.90
8539;DHT22;4307;53.868;11.680;2022-10-16T00:14:08;15.70;99.90
8539;DHT22;4307;53.868;11.680;2022-10-16T00:16:36;15.60;99.90
8539;DHT22;4307;53.868;11.680;2022-10-16T00:19:02;15.60;99.90
8539;DHT22;4307;53.868;11.680;2022-10-16T00:21:30;15.60;99.90
8539;DHT22;4307;53.868;11.680;2022-10-16T00:23:58;15.60;99.90
8539;DHT22;4307;53.868;11.680;2022-10-16T00:26:26;15.50;99.90
8539;DHT22;4307;53.868;11.680;2022-10-16T00:28:54;15.50;99.90
8539;DHT22;4307;53.868;11.680;2022-10-16T00:31:23;15.50;99.90
8539;DHT22;4307;53.868;11.680;2022-10-16T00:33:50;15.50;99.90
8539;DHT22;4307;53.868;11.680;2022-10-16T00:36:19;15.50;99.90
8539;DHT22;4307;53.868;11.680;2022-10-16T00:38:46;15.40;99.90
8539;DHT22;4307;53.868;11.680;2022-10-16T00:41:14;15.40;99.90
8539;DHT22;4307;53.868;11.680;2022-10-16T00:43:43;15.40;99.90
8539;DHT22;4307;53.868;11.680;2022-10-16T00:46:16;15.40;99.90
8539;DHT22;4307;53.868;11.680;2022-10-16T00:48:47;15.30;99.90
8539;DHT22;4307;53.868;11.680;2022-10-16T00:51:15;15.30;99.90
8539;DHT22;4307;53.868;11.680;2022-10-16T00:53:44;15.30;99.90
8539;DHT22;4307;53.868;11.680;2022-10-16T00:56:11;15.30;99.90
8539;DHT22;4307;53.868;11.680;2022-10-16T00:58:37;15.30;99.90
8539;DHT22;4307;53.868;11.680;2022-10-16T01:01:04;15.30;99.90
8539;DHT22;4307;53.868;11.680;2022-10-16T01:03:34;15.30;99.90
8539;DHT22;4307;53.868;11.680;2022-10-16T01:06:14;15.20;99.90
8539;DHT22;4307;53.868;11.680;2022-10-16T01:08:51;15.20;99.90
8539;DHT22;4307;53.868;11.680;2022-10-16T01:11:22;15.20;99.90
8539;DHT22;4307;53.868;11.680;2022-10-16T01:13:54;15.10;99.90
8539;DHT22;4307;53.868;11.680;2022-10-16T01:16:27;15.10;99.90
8539;DHT22;4307;53.868;11.680;2022-10-16T01:18:58;15.10;99.90
8539;DHT22;4307;53.868;11.680;2022-10-16T01:21:29;15.10;99.90
8539;DHT22;4307;53.868;11.680;2022-10-16T01:24:03;15.00;99.90
8539;DHT22;4307;53.868;11.680;2022-10-16T01:26:43;15.00;99.90
8539;DHT22;4307;53.868;11.680;2022-10-16T01:29:18;15.00;99.90
8539;DHT22;4307;53.868;11.680;2022-10-16T01:31:49;15.00;99.90
8539;DHT22;4307;53.868;11.680;2022-10-16T01:34:20;14.90;99.90
8539;DHT22;4307;53.868;11.680;2022-10-16T01:36:52;14.90;99.90
8539;DHT22;4307;53.868;11.680;2022-10-16T01:39:22;14.90;99.90
8539;DHT22;4307;53.868;11.680;2022-10-16T01:41:55;14.90;99.90
8539;DHT22;4307;53.868;11.680;2022-10-16T01:44:28;14.90;99.90
8539;DHT22;4307;53.868;11.680;2022-10-16T01:46:56;14.80;99.90
8539;DHT22;4307;53.868;11.680;2022-10-16T01:49:24;14.80;99.90
8539;DHT22;4307;53.868;11.680;2022-10-16T01:51:55;14.80;99.90
8539;DHT22;4307;53.868;11.680;2022-10-16T01:54:23;14.80;99.90
8539;DHT22;4307;53.868;11.680;2022-10-16T01:56:52;14.80;99.90
8539;DHT22;4307;53.868;11.680;2022-10-16T01:59:21;14.80;99.90
8539;DHT22;4307;53.868;11.680;2022-10-16T02:01:53;14.80;99.90
8539;DHT22;4307;53.868;11.680;2022-10-16T02:04:24;14.90;99.90
8539;DHT22;4307;53.868;11.680;2022-10-16T02:06:53;14.90;99.90
8539;DHT22;4307;53.868;11.680;2022-10-16T02:09:21;14.90;99.90
8539;DHT22;4307;53.868;11.680;2022-10-16T02:11:48;14.80;99.90
8539;DHT22;4307;53.868;11.680;2022-10-16T02:14:16;14.80;99.90
8539;DHT22;4307;53.868;11.680;2022-10-16T02:16:44;14.80;99.90
8539;DHT22;4307;53.868;11.680;2022-10-16T02:19:13;14.80;99.90
8539;DHT22;4307;53.868;11.680;2022-10-16T02:21:46;14.80;99.90
8539;DHT22;4307;53.868;11.680;2022-10-16T02:24:21;14.80;99.90
8539;DHT22;4307;53.868;11.680;2022-10-16T02:26:52;14.80;99.90
8539;DHT22;4307;53.868;11.680;2022-10-16T02:29:25;14.80;99.90
8539;DHT22;4307;53.868;11.680;2022-10-16T02:31:55;14.80;99.90
8539;DHT22;4307;53.868;11.680;2022-10-16T02:34:26;14.70;99.90
8539;DHT22;4307;53.868;11.680;2022-10-16T02:36:54;14.70;99.90
8539;DHT22;4307;53.868;11.680;2022-10-16T02:39:21;14.70;99.90
8539;DHT22;4307;53.868;11.680;2022-10-16T02:41:48;14.70;99.90
8539;DHT22;4307;53.868;11.680;2022-10-16T02:44:14;14.70;99.90
8539;DHT22;4307;53.868;11.680;2022-10-16T02:46:41;14.70;99.90
8539;DHT22;4307;53.868;11.680;2022-10-16T02:49:07;14.70;99.90
8539;DHT22;4307;53.868;11.680;2022-10-16T02:51:35;14.70;99.90
8539;DHT22;4307;53.868;11.680;2022-10-16T02:54:02;14.70;99.90
8539;DHT22;4307;53.868;11.680;2022-10-16T02:56:29;14.70;99.90
8539;DHT22;4307;53.868;11.680;2022-10-16T02:58:56;14.60;99.90
8539;DHT22;4307;53.868;11.680;2022-10-16T03:01:23;14.60;99.90
8539;DHT22;4307;53.868;11.680;2022-10-16T03:03:50;14.60;99.90
8539;DHT22;4307;53.868;11.680;2022-10-16T03:06:17;14.60;99.90
8539;DHT22;4307;53.868;11.680;2022-10-16T03:08:45;14.60;99.90
8539;DHT22;4307;53.868;11.680;2022-10-16T03:11:12;14.60;99.90
8539;DHT22;4307;53.868;11.680;2022-10-16T03:13:39;14.60;99.90
8539;DHT22;4307;53.868;11.680;2022-10-16T03:16:05;14.60;99.90
8539;DHT22;4307;53.868;11.680;2022-10-16T03:18:32;14.60;99.90
8539;DHT22;4307;53.868;11.680;2022-10-16T03:20:59;14.60;99.90
8539;DHT22;4307;53.868;11.680;2022-10-16T03:23:25;14.60;99.90
8539;DHT22;4307;53.868;11.680;2022-10-16T03:25:53;14.60;99.90
8539;DHT22;4307;53.868;11.680;2022-10-16T03:28:20;14.60;99.90
8539;DHT22;4307;53.868;11.680;2022-10-16T03:30:46;14.60;99.90
8539;DHT22;4307;53.868;11.680;2022-10-16T03:33:13;14.60;99.90
8539;DHT22;4307;53.868;11.680;2022-10-16T03:35:40;14.60;99.90
8539;DHT22;4307;53.868;11.680;2022-10-16T03:38:06;14.60;99.90
8539;DHT22;4307;53.868;11.680;2022-10-16T03:40:33;14.60;99.90
8539;DHT22;4307;53.868;11.680;2022-10-16T03:43:01;14.60;99.90
8539;DHT22;4307;53.868;11.680;2022-10-16T03:45:28;14.60;99.90
8539;DHT22;4307;53.868;11.680;2022-10-16T03:47:54;14.60;99.90
8539;DHT22;4307;53.868;11.680;2022-10-16T03:50:21;14.50;99.90
8539;DHT22;4307;53.868;11.680;2022-10-16T03:52:47;14.50;99.90
8539;DHT22;4307;53.868;11.680;2022-10-16T03:55:14;14.50;99.90
8539;DHT22;4307;53.868;11.680;2022-10-16T03:57:41;14.50;99.90
8539;DHT22;4307;53.868;11.680;2022-10-16T04:00:11;14.50;99.90
8539;DHT22;4307;53.868;11.680;2022-10-16T04:02:37;14.40;99.90
8539;DHT22;4307;53.868;11.680;2022-10-16T04:05:04;14.40;99.90
8539;DHT22;4307;53.868;11.680;2022-10-16T04:07:31;14.40;99.90
8539;DHT22;4307;53.868;11.680;2022-10-16T04:09:58;14.40;99.90
8539;DHT22;4307;53.868;11.680;2022-10-16T04:12:25;14.40;99.90
8539;DHT22;4307;53.868;11.680;2022-10-16T04:14:51;14.40;99.90
8539;DHT22;4307;53.868;11.680;2022-10-16T04:17:19;14.30;99.90
8539;DHT22;4307;53.868;11.680;2022-10-16T04:19:46;14.30;99.90
8539;DHT22;4307;53.868;11.680;2022-10-16T04:22:12;14.30;99.90
8539;DHT22;4307;53.868;11.680;2022-10-16T04:24:40;14.30;99.90
8539;DHT22;4307;53.868;11.680;2022-10-16T04:27:06;14.30;99.90
8539;DHT22;4307;53.868;11.680;2022-10-16T04:29:33;14.20;99.90
8539;DHT22;4307;53.868;11.680;2022-10-16T04:31:59;14.20;99.90
8539;DHT22;4307;53.868;11.680;2022-10-16T04:34:27;14.20;99.90
8539;DHT22;4307;53.868;11.680;2022-10-16T04:36:54;14.20;99.90
8539;DHT22;4307;53.868;11.680;2022-10-16T04:39:21;14.10;99.90
8539;DHT22;4307;53.868;11.680;2022-10-16T04:41:47;14.10;99.90
8539;DHT22;4307;53.868;11.680;2022-10-16T04:44:14;14.10;99.90
8539;DHT22;4307;53.868;11.680;2022-10-16T04:46:41;14.00;99.90
8539;DHT22;4307;53.868;11.680;2022-10-16T04:49:07;14.00;99.90
8539;DHT22;4307;53.868;11.680;2022-10-16T04:51:35;14.00;99.90
8539;DHT22;4307;53.868;11.680;2022-10-16T04:54:02;14.00;99.90
8539;DHT22;4307;53.868;11.680;2022-10-16T04:56:29;14.00;99.90
8539;DHT22;4307;53.868;11.680;2022-10-16T04:58:56;14.00;99.90
8539;DHT22;4307;53.868;11.680;2022-10-16T05:01:22;13.90;99.90
8539;DHT22;4307;53.868;11.680;2022-10-16T05:03:49;13.90;99.90
8539;DHT22;4307;53.868;11.680;2022-10-16T05:06:16;13.90;99.90
8539;DHT22;4307;53.868;11.680;2022-10-16T05:08:44;13.90;99.90
8539;DHT22;4307;53.868;11.680;2022-10-16T05:11:10;13.90;99.90
8539;DHT22;4307;53.868;11.680;2022-10-16T05:13:37;13.90;99.90
8539;DHT22;4307;53.868;11.680;2022-10-16T05:16:04;13.90;99.90
8539;DHT22;4307;53.868;11.680;2022-10-16T05:18:31;13.90;99.90
8539;DHT22;4307;53.868;11.680;2022-10-16T05:20:58;13.90;99.90
8539;DHT22;4307;53.868;11.680;2022-10-16T05:23:24;13.90;99.90
8539;DHT22;4307;53.868;11.680;2022-10-16T05:25:56;13.90;99.90
8539;DHT22;4307;53.868;11.680;2022-10-16T05:28:24;13.90;99.90
8539;DHT22;4307;53.868;11.680;2022-10-16T05:30:50;13.90;99.90
8539;DHT22;4307;53.868;11.680;2022-10-16T05:33:19;13.90;99.90
8539;DHT22;4307;53.868;11.680;2022-10-16T05:35:46;13.90;99.90
8539;DHT22;4307;53.868;11.680;2022-10-16T05:38:13;13.90;99.90
8539;DHT22;4307;53.868;11.680;2022-10-16T05:40:39;13.80;99.90
8539;DHT22;4307;53.868;11.680;2022-10-16T05:43:07;13.80;99.90
8539;DHT22;4307;53.868;11.680;2022-10-16T05:45:34;13.80;99.90
8539;DHT22;4307;53.868;11.680;2022-10-16T05:48:00;13.80;99.90
8539;DHT22;4307;53.868;11.680;2022-10-16T05:50:27;13.80;99.90
8539;DHT22;4307;53.868;11.680;2022-10-16T05:52:54;13.80;99.90
8539;DHT22;4307;53.868;11.680;2022-10-16T05:55:21;13.80;99.90
8539;DHT22;4307;53.868;11.680;2022-10-16T05:57:47;13.80;99.90
8539;DHT22;4307;53.868;11.680;2022-10-16T06:00:15;13.80;99.90
8539;DHT22;4307;53.868;11.680;2022-10-16T06:02:42;13.80;99.90
8539;DHT22;4307;53.868;11.680;2022-10-16T06:05:09;13.80;99.90
8539;DHT22;4307;53.868;11.680;2022-10-16T06:07:35;13.80;99.90
8539;DHT22;4307;53.868;11.680;2022-10-16T06:10:03;13.80;99.90
8539;DHT22;4307;53.868;11.680;2022-10-16T06:12:30;13.90;99.90
8539;DHT22;4307;53.868;11.680;2022-10-16T06:14:57;13.90;99.90
8539;DHT22;4307;53.868;11.680;2022-10-16T06:17:25;13.90;99.90
8539;DHT22;4307;53.868;11.680;2022-10-16T06:19:51;13.90;99.90
8539;DHT22;4307;53.868;11.680;2022-10-16T06:22:18;13.90;99.90
8539;DHT22;4307;53.868;11.680;2022-10-16T06:24:45;14.00;99.90
8539;DHT22;4307;53.868;11.680;2022-10-16T06:27:13;14.00;99.90
8539;DHT22;4307;53.868;11.680;2022-10-16T06:29:39;14.00;99.90
8539;DHT22;4307;53.868;11.680;2022-10-16T06:32:06;14.00;99.90
8539;DHT22;4307;53.868;11.680;2022-10-16T06:34:34;14.00;99.90
8539;DHT22;4307;53.868;11.680;2022-10-16T06:37:00;14.00;99.90
8539;DHT22;4307;53.868;11.680;2022-10-16T06:39:27;14.00;99.90
8539;DHT22;4307;53.868;11.680;2022-10-16T06:41:54;14.00;99.90
8539;DHT22;4307;53.868;11.680;2022-10-16T06:44:20;14.00;99.90
8539;DHT22;4307;53.868;11.680;2022-10-16T06:46:47;14.00;99.90
8539;DHT22;4307;53.868;11.680;2022-10-16T06:49:13;14.00;99.90
8539;DHT22;4307;53.868;11.680;2022-10-16T06:51:47;14.00;99.90
8539;DHT22;4307;53.868;11.680;2022-10-16T06:54:15;14.00;99.90
8539;DHT22;4307;53.868;11.680;2022-10-16T06:56:42;14.00;99.90
8539;DHT22;4307;53.868;11.680;2022-10-16T06:59:08;14.00;99.90
8539;DHT22;4307;53.868;11.680;2022-10-16T07:01:35;14.00;99.90
8539;DHT22;4307;53.868;11.680;2022-10-16T07:04:02;14.00;99.90
8539;DHT22;4307;53.868;11.680;2022-10-16T07:06:31;14.00;99.90
8539;DHT22;4307;53.868;11.680;2022-10-16T07:09:02;14.00;99.90
8539;DHT22;4307;53.868;11.680;2022-10-16T07:11:29;14.00;99.90
8539;DHT22;4307;53.868;11.680;2022-10-16T07:13:55;14.00;99.90
8539;DHT22;4307;53.868;11.680;2022-10-16T07:16:24;14.00;99.90
8539;DHT22;4307;53.868;11.680;2022-10-16T07:18:51;14.00;99.90
8539;DHT22;4307;53.868;11.680;2022-10-16T07:21:23;14.10;99.90
8539;DHT22;4307;53.868;11.680;2022-10-16T07:23:51;14.20;99.90
8539;DHT22;4307;53.868;11.680;2022-10-16T07:26:19;14.20;99.90
8539;DHT22;4307;53.868;11.680;2022-10-16T07:28:46;14.30;99.90
8539;DHT22;4307;53.868;11.680;2022-10-16T07:31:14;14.40;99.90
8539;DHT22;4307;53.868;11.680;2022-10-16T07:33:42;14.40;99.90
8539;DHT22;4307;53.868;11.680;2022-10-16T07:36:10;14.50;99.90
8539;DHT22;4307;53.868;11.680;2022-10-16T07:38:37;14.60;99.90
8539;DHT22;4307;53.868;11.680;2022-10-16T07:41:06;14.80;99.90
8539;DHT22;4307;53.868;11.680;2022-10-16T07:43:34;15.00;99.90
8539;DHT22;4307;53.868;11.680;2022-10-16T07:46:01;15.20;99.90
8539;DHT22;4307;53.868;11.680;2022-10-16T07:48:29;15.40;99.90
8539;DHT22;4307;53.868;11.680;2022-10-16T07:50:57;15.60;99.90
8539;DHT22;4307;53.868;11.680;2022-10-16T07:53:23;15.80;99.90
8539;DHT22;4307;53.868;11.680;2022-10-16T07:55:50;15.90;99.90
8539;DHT22;4307;53.868;11.680;2022-10-16T07:58:17;16.00;99.90
8539;DHT22;4307;53.868;11.680;2022-10-16T08:00:45;16.20;99.90
8539;DHT22;4307;53.868;11.680;2022-10-16T08:03:11;16.50;99.90
8539;DHT22;4307;53.868;11.680;2022-10-16T08:05:38;16.60;99.90
8539;DHT22;4307;53.868;11.680;2022-10-16T08:08:05;16.70;99.90
8539;DHT22;4307;53.868;11.680;2022-10-16T08:10:31;16.90;99.90
8539;DHT22;4307;53.868;11.680;2022-10-16T08:12:58;17.00;99.90
8539;DHT22;4307;53.868;11.680;2022-10-16T08:15:25;17.10;99.90
8539;DHT22;4307;53.868;11.680;2022-10-16T08:17:57;17.30;99.90
8539;DHT22;4307;53.868;11.680;2022-10-16T08:20:25;17.40;99.90
8539;DHT22;4307;53.868;11.680;2022-10-16T08:22:52;17.40;99.90
8539;DHT22;4307;53.868;11.680;2022-10-16T08:25:19;17.50;99.90
8539;DHT22;4307;53.868;11.680;2022-10-16T08:27:46;17.50;99.90
8539;DHT22;4307;53.868;11.680;2022-10-16T08:30:13;17.60;99.90
8539;DHT22;4307;53.868;11.680;2022-10-16T08:32:40;17.70;99.90
8539;DHT22;4307;53.868;11.680;2022-10-16T08:35:09;17.90;99.90
8539;DHT22;4307;53.868;11.680;2022-10-16T08:37:36;18.00;99.90
8539;DHT22;4307;53.868;11.680;2022-10-16T08:40:05;18.10;99.90
8539;DHT22;4307;53.868;11.680;2022-10-16T08:42:42;18.20;99.90
8539;DHT22;4307;53.868;11.680;2022-10-16T08:45:34;18.40;99.90
8539;DHT22;4307;53.868;11.680;2022-10-16T08:48:15;18.60;99.90
8539;DHT22;4307;53.868;11.680;2022-10-16T08:50:45;18.70;99.90
8539;DHT22;4307;53.868;11.680;2022-10-16T08:53:17;18.70;99.90
8539;DHT22;4307;53.868;11.680;2022-10-16T08:55:50;18.80;99.90
8539;DHT22;4307;53.868;11.680;2022-10-16T08:58:18;18.80;99.90
8539;DHT22;4307;53.868;11.680;2022-10-16T09:00:47;18.80;99.90
8539;DHT22;4307;53.868;11.680;2022-10-16T09:03:23;18.70;99.90
8539;DHT22;4307;53.868;11.680;2022-10-16T09:06:00;18.50;99.90
8539;DHT22;4307;53.868;11.680;2022-10-16T09:08:38;18.50;99.90
8539;DHT22;4307;53.868;11.680;2022-10-16T09:11:14;18.50;99.90
8539;DHT22;4307;53.868;11.680;2022-10-16T09:13:49;18.30;99.90
8539;DHT22;4307;53.868;11.680;2022-10-16T09:16:19;18.30;99.90
8539;DHT22;4307;53.868;11.680;2022-10-16T09:18:54;18.20;99.90
8539;DHT22;4307;53.868;11.680;2022-10-16T09:21:26;18.10;99.90
8539;DHT22;4307;53.868;11.680;2022-10-16T09:23:57;18.10;99.90
8539;DHT22;4307;53.868;11.680;2022-10-16T09:26:24;18.00;99.90
8539;DHT22;4307;53.868;11.680;2022-10-16T09:28:52;17.90;99.90
8539;DHT22;4307;53.868;11.680;2022-10-16T09:31:21;17.80;99.90
8539;DHT22;4307;53.868;11.680;2022-10-16T09:33:51;17.80;99.90
8539;DHT22;4307;53.868;11.680;2022-10-16T09:36:20;17.80;99.90
8539;DHT22;4307;53.868;11.680;2022-10-16T09:38:48;17.80;99.90
8539;DHT22;4307;53.868;11.680;2022-10-16T09:41:18;17.80;99.90
8539;DHT22;4307;53.868;11.680;2022-10-16T09:43:52;17.90;99.90
8539;DHT22;4307;53.868;11.680;2022-10-16T09:46:26;18.20;99.90
8539;DHT22;4307;53.868;11.680;2022-10-16T09:48:56;18.40;99.90
8539;DHT22;4307;53.868;11.680;2022-10-16T09:51:26;18.60;99.90
8539;DHT22;4307;53.868;11.680;2022-10-16T09:54:00;18.80;99.90
8539;DHT22;4307;53.868;11.680;2022-10-16T09:56:28;19.00;99.90
8539;DHT22;4307;53.868;11.680;2022-10-16T09:58:56;19.10;99.90
8539;DHT22;4307;53.868;11.680;2022-10-16T10:01:28;19.30;99.90
8539;DHT22;4307;53.868;11.680;2022-10-16T10:03:57;19.50;99.90
8539;DHT22;4307;53.868;11.680;2022-10-16T10:06:29;19.60;99.90
8539;DHT22;4307;53.868;11.680;2022-10-16T10:09:03;19.60;99.90
8539;DHT22;4307;53.868;11.680;2022-10-16T10:11:44;19.70;99.90
8539;DHT22;4307;53.868;11.680;2022-10-16T10:14:18;19.80;99.90
8539;DHT22;4307;53.868;11.680;2022-10-16T10:16:45;19.80;99.90
8539;DHT22;4307;53.868;11.680;2022-10-16T10:19:15;19.90;99.90
8539;DHT22;4307;53.868;11.680;2022-10-16T10:21:42;19.90;99.90
8539;DHT22;4307;53.868;11.680;2022-10-16T10:24:12;19.90;99.90
8539;DHT22;4307;53.868;11.680;2022-10-16T10:26:44;20.00;99.90
8539;DHT22;4307;53.868;11.680;2022-10-16T10:29:18;20.30;99.90
8539;DHT22;4307;53.868;11.680;2022-10-16T10:31:53;20.30;99.90
8539;DHT22;4307;53.868;11.680;2022-10-16T10:34:39;20.40;99.90
8539;DHT22;4307;53.868;11.680;2022-10-16T10:37:20;20.50;99.90
8539;DHT22;4307;53.868;11.680;2022-10-16T10:39:54;20.70;99.90
8539;DHT22;4307;53.868;11.680;2022-10-16T10:42:28;20.70;99.90
8539;DHT22;4307;53.868;11.680;2022-10-16T10:45:11;20.80;99.90
8539;DHT22;4307;53.868;11.680;2022-10-16T10:47:49;20.80;99.90
8539;DHT22;4307;53.868;11.680;2022-10-16T10:50:24;20.90;99.90
8539;DHT22;4307;53.868;11.680;2022-10-16T10:53:02;21.00;99.90
8539;DHT22;4307;53.868;11.680;2022-10-16T10:55:38;21.00;99.90
8539;DHT22;4307;53.868;11.680;2022-10-16T10:58:29;21.10;99.90
8539;DHT22;4307;53.868;11.680;2022-10-16T16:43:09;16.70;97.10
8539;DHT22;4307;53.868;11.680;2022-10-16T16:45:36;16.60;97.30
8539;DHT22;4307;53.868;11.680;2022-10-16T16:48:02;16.50;97.50
8539;DHT22;4307;53.868;11.680;2022-10-16T16:50:35;16.40;97.60
8539;DHT22;4307;53.868;11.680;2022-10-16T16:53:01;16.30;97.80
8539;DHT22;4307;53.868;11.680;2022-10-16T16:55:28;16.20;97.80
8539;DHT22;4307;53.868;11.680;2022-10-16T16:57:55;16.20;98.00
8539;DHT22;4307;53.868;11.680;2022-10-16T17:00:23;16.10;98.20
8539;DHT22;4307;53.868;11.680;2022-10-16T17:02:50;16.00;98.30
8539;DHT22;4307;53.868;11.680;2022-10-16T17:05:17;16.00;98.50
8539;DHT22;4307;53.868;11.680;2022-10-16T17:07:44;15.90;98.50
8539;DHT22;4307;53.868;11.680;2022-10-16T17:10:10;15.90;98.60
8539;DHT22;4307;53.868;11.680;2022-10-16T17:12:37;15.90;98.70
8539;DHT22;4307;53.868;11.680;2022-10-16T17:15:04;15.80;98.80
8539;DHT22;4307;53.868;11.680;2022-10-16T17:17:32;15.70;98.90
8539;DHT22;4307;53.868;11.680;2022-10-16T17:19:59;15.70;99.10
8539;DHT22;4307;53.868;11.680;2022-10-16T17:22:26;15.60;99.10
8539;DHT22;4307;53.868;11.680;2022-10-16T17:24:52;15.60;99.30
8539;DHT22;4307;53.868;11.680;2022-10-16T17:27:19;15.50;99.40
8539;DHT22;4307;53.868;11.680;2022-10-16T17:29:50;15.50;99.40
8539;DHT22;4307;53.868;11.680;2022-10-16T17:32:16;15.40;99.50
8539;DHT22;4307;53.868;11.680;2022-10-16T17:34:46;15.40;99.60
8539;DHT22;4307;53.868;11.680;2022-10-16T17:37:13;15.30;99.70
8539;DHT22;4307;53.868;11.680;2022-10-16T17:39:39;15.20;99.70
8539;DHT22;4307;53.868;11.680;2022-10-16T17:42:06;15.00;99.80
8539;DHT22;4307;53.868;11.680;2022-10-16T17:44:33;14.90;99.90
8539;DHT22;4307;53.868;11.680;2022-10-16T17:46:59;14.80;99.90
8539;DHT22;4307;53.868;11.680;2022-10-16T17:49:26;14.70;99.90
8539;DHT22;4307;53.868;11.680;2022-10-16T17:51:54;14.60;99.90
8539;DHT22;4307;53.868;11.680;2022-10-16T17:54:21;14.60;99.90
8539;DHT22;4307;53.868;11.680;2022-10-16T17:56:47;14.40;99.90
8539;DHT22;4307;53.868;11.680;2022-10-16T17:59:14;14.30;99.90
8539;DHT22;4307;53.868;11.680;2022-10-16T18:01:41;14.20;99.90
8539;DHT22;4307;53.868;11.680;2022-10-16T18:04:12;14.10;99.90
8539;DHT22;4307;53.868;11.680;2022-10-16T18:06:40;14.00;99.90
8539;DHT22;4307;53.868;11.680;2022-10-16T18:09:10;13.90;99.90
8539;DHT22;4307;53.868;11.680;2022-10-16T18:11:37;13.80;99.90
8539;DHT22;4307;53.868;11.680;2022-10-16T18:14:03;13.80;99.90
8539;DHT22;4307;53.868;11.680;2022-10-16T18:16:31;13.70;99.90
8539;DHT22;4307;53.868;11.680;2022-10-16T18:18:58;13.60;99.90
8539;DHT22;4307;53.868;11.680;2022-10-16T18:21:26;13.50;99.90
8539;DHT22;4307;53.868;11.680;2022-10-16T18:23:53;13.50;99.90
8539;DHT22;4307;53.868;11.680;2022-10-16T18:26:22;13.40;99.90
8539;DHT22;4307;53.868;11.680;2022-10-16T18:28:51;13.30;99.90
8539;DHT22;4307;53.868;11.680;2022-10-16T18:31:18;13.30;99.90
8539;DHT22;4307;53.868;11.680;2022-10-16T18:33:45;13.20;99.90
8539;DHT22;4307;53.868;11.680;2022-10-16T18:36:16;13.20;99.90
8539;DHT22;4307;53.868;11.680;2022-10-16T18:38:43;13.10;99.90
8539;DHT22;4307;53.868;11.680;2022-10-16T18:41:09;13.00;99.90
8539;DHT22;4307;53.868;11.680;2022-10-16T18:43:38;12.90;99.90
8539;DHT22;4307;53.868;11.680;2022-10-16T18:46:06;12.80;99.90
8539;DHT22;4307;53.868;11.680;2022-10-16T18:48:33;12.70;99.90
8539;DHT22;4307;53.868;11.680;2022-10-16T18:51:11;12.60;99.90
8539;DHT22;4307;53.868;11.680;2022-10-16T18:53:39;12.50;99.90
8539;DHT22;4307;53.868;11.680;2022-10-16T18:56:07;12.50;99.90
8539;DHT22;4307;53.868;11.680;2022-10-16T18:58:34;12.40;99.90
8539;DHT22;4307;53.868;11.680;2022-10-16T19:01:07;12.30;99.90
8539;DHT22;4307;53.868;11.680;2022-10-16T19:03:34;12.30;99.90
8539;DHT22;4307;53.868;11.680;2022-10-16T19:06:01;12.20;99.90
8539;DHT22;4307;53.868;11.680;2022-10-16T19:08:29;12.20;99.90
8539;DHT22;4307;53.868;11.680;2022-10-16T19:11:01;12.20;99.90
8539;DHT22;4307;53.868;11.680;2022-10-16T19:13:28;12.20;99.90
8539;DHT22;4307;53.868;11.680;2022-10-16T19:15:55;12.10;99.90
8539;DHT22;4307;53.868;11.680;2022-10-16T19:18:24;12.00;99.90
8539;DHT22;4307;53.868;11.680;2022-10-16T19:20:51;12.00;99.90
8539;DHT22;4307;53.868;11.680;2022-10-16T19:23:18;11.90;99.90
8539;DHT22;4307;53.868;11.680;2022-10-16T19:25:44;12.00;99.90
8539;DHT22;4307;53.868;11.680;2022-10-16T19:28:11;11.90;99.90
8539;DHT22;4307;53.868;11.680;2022-10-16T19:30:38;11.80;99.90
8539;DHT22;4307;53.868;11.680;2022-10-16T19:33:07;11.80;99.90
8539;DHT22;4307;53.868;11.680;2022-10-16T19:35:35;11.80;99.90
8539;DHT22;4307;53.868;11.680;2022-10-16T19:38:01;11.70;99.90
8539;DHT22;4307;53.868;11.680;2022-10-16T19:40:28;11.60;99.90
8539;DHT22;4307;53.868;11.680;2022-10-16T19:42:55;11.60;99.90
8539;DHT22;4307;53.868;11.680;2022-10-16T19:45:21;11.50;99.90
8539;DHT22;4307;53.868;11.680;2022-10-16T19:47:48;11.40;99.90
8539;DHT22;4307;53.868;11.680;2022-10-16T19:50:15;11.30;99.90
8539;DHT22;4307;53.868;11.680;2022-10-16T19:52:44;11.30;99.90
8539;DHT22;4307;53.868;11.680;2022-10-16T19:55:11;11.30;99.90
8539;DHT22;4307;53.868;11.680;2022-10-16T19:57:38;11.30;99.90
8539;DHT22;4307;53.868;11.680;2022-10-16T20:00:07;11.20;99.90
8539;DHT22;4307;53.868;11.680;2022-10-16T20:02:35;11.10;99.90
8539;DHT22;4307;53.868;11.680;2022-10-16T20:05:02;11.10;99.90
8539;DHT22;4307;53.868;11.680;2022-10-16T20:07:28;11.10;99.90
8539;DHT22;4307;53.868;11.680;2022-10-16T20:09:56;11.00;99.90
8539;DHT22;4307;53.868;11.680;2022-10-16T20:12:23;11.00;99.90
8539;DHT22;4307;53.868;11.680;2022-10-16T20:14:50;11.00;99.90
8539;DHT22;4307;53.868;11.680;2022-10-16T20:17:16;11.00;99.90
8539;DHT22;4307;53.868;11.680;2022-10-16T20:19:43;10.90;99.90
8539;DHT22;4307;53.868;11.680;2022-10-16T20:22:09;10.90;99.90
8539;DHT22;4307;53.868;11.680;2022-10-16T20:24:36;10.90;99.90
8539;DHT22;4307;53.868;11.680;2022-10-16T20:27:04;10.90;99.90
8539;DHT22;4307;53.868;11.680;2022-10-16T20:29:31;10.90;99.90
8539;DHT22;4307;53.868;11.680;2022-10-16T20:31:57;10.80;99.90
8539;DHT22;4307;53.868;11.680;2022-10-16T20:34:24;10.80;99.90
8539;DHT22;4307;53.868;11.680;2022-10-16T20:36:51;10.80;99.90
8539;DHT22;4307;53.868;11.680;2022-10-16T20:39:17;10.70;99.90
8539;DHT22;4307;53.868;11.680;2022-10-16T20:41:44;10.70;99.90
8539;DHT22;4307;53.868;11.680;2022-10-16T20:44:12;10.70;99.90
8539;DHT22;4307;53.868;11.680;2022-10-16T20:46:38;10.70;99.90
8539;DHT22;4307;53.868;11.680;2022-10-16T20:49:06;10.70;99.90
8539;DHT22;4307;53.868;11.680;2022-10-16T20:51:33;10.70;99.90
8539;DHT22;4307;53.868;11.680;2022-10-16T20:54:02;10.70;99.90
8539;DHT22;4307;53.868;11.680;2022-10-16T20:56:30;10.60;99.90
8539;DHT22;4307;53.868;11.680;2022-10-16T20:58:57;10.70;99.90
8539;DHT22;4307;53.868;11.680;2022-10-16T21:01:27;10.70;99.90
8539;DHT22;4307;53.868;11.680;2022-10-16T21:03:56;10.70;99.90
8539;DHT22;4307;53.868;11.680;2022-10-16T21:06:25;10.70;99.90
8539;DHT22;4307;53.868;11.680;2022-10-16T21:08:52;10.60;99.90
8539;DHT22;4307;53.868;11.680;2022-10-16T21:11:21;10.60;99.90
8539;DHT22;4307;53.868;11.680;2022-10-16T21:13:48;10.60;99.90
8539;DHT22;4307;53.868;11.680;2022-10-16T21:16:16;10.60;99.90
8539;DHT22;4307;53.868;11.680;2022-10-16T21:18:44;10.50;99.90
8539;DHT22;4307;53.868;11.680;2022-10-16T21:21:18;10.50;99.90
8539;DHT22;4307;53.868;11.680;2022-10-16T21:23:47;10.50;99.90
8539;DHT22;4307;53.868;11.680;2022-10-16T21:26:13;10.50;99.90
8539;DHT22;4307;53.868;11.680;2022-10-16T21:28:40;10.50;99.90
8539;DHT22;4307;53.868;11.680;2022-10-16T21:31:12;10.50;99.90
8539;DHT22;4307;53.868;11.680;2022-10-16T21:33:39;10.50;99.90
8539;DHT22;4307;53.868;11.680;2022-10-16T21:36:13;10.50;99.90